メインページ
METAR-TAF:

METAR-TAF

空港 :

キングストン, ジャマイカ

ノーマン・マンレー国際空港

緯度: 17-56N, 経度: 076-47W, 海抜: 3m

現時点の気象観測

当レポートは20分前の23:00(UTC)に作成
南東の風 16kt
気温 29°C
湿度 74%
気圧 1014 hPa
視程10km以上
高度1800ftの雲は散在している

METAR: MKJP 272300Z 14016KT 9999 SCT018 29/24 Q1014

時間: 18:20 (23:20 UTC)

予報

当レポートは6時間5分前の17:15(UTC)に作成
予報は27日の 18時(UTC)から 28日の 18時(UTC)まで有効
南東の風 21kt
視程10km以上
高度2400ftの雲はほとんどない
28日の 04時(UTC)から 28日の 06時(UTC)まで徐々に
の風 5kt
28日の 14時(UTC)から 28日の 16時(UTC)まで徐々に
南東の風 18kt
高度1800ftの雲は散在している

TAF: MKJP 271715Z 2718/2818 14021KT 9999 FEW024 BECMG 2804/2806 35005KT BECMG 2814/2816 14018KT SCT018

4,000以上の空港の気象観測と天気予報(METAR報とTAF報)

利用可能な観測所は地図上に黄色い丸と赤い丸で示す。

丸の上にカーソルを重ねると観測所名を参照できる。

次にクリックすると気象観測と天気予報を参照できる。

マップの切り替え:黒色「×」印の緑ボタンをクリックして拡大、「-」印の緑ボタンをクリックして縮小、緑色の三角印をクリックして隣りの地図に切り替え


METAR-TAF: